createdAt,value
2018-11-26T00:00:49.549Z,102.34
2018-11-26T00:01:50.184Z,102.22
2018-11-26T00:02:50.950Z,102.10
2018-11-26T00:03:51.823Z,102.18
2018-11-26T00:04:52.453Z,102.40
2018-11-26T00:05:53.120Z,102.33
2018-11-26T00:06:52.772Z,102.22
2018-11-26T00:07:54.408Z,102.17
2018-11-26T00:08:54.231Z,102.05
2018-11-26T00:09:55.175Z,102.14
2018-11-26T00:10:56.291Z,102.23
2018-11-26T00:11:56.779Z,102.39
2018-11-26T00:12:57.259Z,102.70
2018-11-26T00:13:57.626Z,102.86
2018-11-26T00:14:58.617Z,102.76
2018-11-26T00:15:58.481Z,102.78
2018-11-26T00:17:00.031Z,102.72
2018-11-26T00:18:00.615Z,101.60
2018-11-26T00:19:01.082Z,101.14
2018-11-26T00:20:00.781Z,101.38
2018-11-26T00:21:02.370Z,101.90
2018-11-26T00:22:02.799Z,102.34
2018-11-26T00:23:03.307Z,102.29
2018-11-26T00:24:03.224Z,102.20
2018-11-26T00:24:12.308Z,101.61
2018-11-26T00:25:12.799Z,101.57
2018-11-26T00:26:13.306Z,101.15
2018-11-26T00:27:13.864Z,101.12
2018-11-26T00:28:14.399Z,100.92
2018-11-26T00:29:14.971Z,100.60
2018-11-26T00:30:15.509Z,100.56
2018-11-26T00:31:16.008Z,100.20
2018-11-26T00:32:15.590Z,100.32
2018-11-26T00:33:17.110Z,100.55
2018-11-26T00:34:16.855Z,100.87
2018-11-26T00:35:18.451Z,101.11
2018-11-26T00:36:18.176Z,101.21
2018-11-26T00:37:18.615Z,101.75
2018-11-26T00:38:20.215Z,102.03
2018-11-26T00:39:20.696Z,101.77
2018-11-26T00:40:21.172Z,101.46
2018-11-26T00:41:21.753Z,101.45
2018-11-26T00:42:22.399Z,101.15
2018-11-26T00:43:22.859Z,100.92
2018-11-26T00:44:23.674Z,100.10
2018-11-26T00:45:24.196Z,99.64
2018-11-26T00:46:24.789Z,99.97
2018-11-26T00:47:25.437Z,99.73
2018-11-26T00:48:26.296Z,99.69
2018-11-26T00:49:26.934Z,100.00
2018-11-26T00:50:27.805Z,100.16
2018-11-26T00:51:28.305Z,100.72
2018-11-26T00:52:27.924Z,100.72
2018-11-26T00:53:28.441Z,100.39
2018-11-26T00:54:30.076Z,100.27
2018-11-26T00:55:30.499Z,100.08
2018-11-26T00:56:30.954Z,99.99
2018-11-26T00:57:31.416Z,100.21
2018-11-26T00:58:32.005Z,100.12
2018-11-26T00:59:32.413Z,100.01
2018-11-26T01:00:32.831Z,100.00
2018-11-26T01:01:33.265Z,100.20
2018-11-26T01:02:33.739Z,100.32
2018-11-26T01:03:34.219Z,100.21
2018-11-26T01:04:34.626Z,100.02
2018-11-26T01:05:35.070Z,99.96
2018-11-26T01:06:35.402Z,99.79
2018-11-26T01:07:35.444Z,99.96
2018-11-26T01:08:36.023Z,100.05
2018-11-26T01:09:36.441Z,100.15
2018-11-26T01:10:36.783Z,100.14
2018-11-26T01:11:37.248Z,100.23
2018-11-26T01:11:45.682Z,100.46
2018-11-26T01:12:47.191Z,100.47
2018-11-26T01:13:47.673Z,100.56
2018-11-26T01:14:48.496Z,100.40
2018-11-26T01:15:49.090Z,100.65
2018-11-26T01:16:49.592Z,100.93
2018-11-26T01:17:50.037Z,100.64
2018-11-26T01:18:50.701Z,100.48
2018-11-26T01:19:51.171Z,100.57
2018-11-26T01:20:51.855Z,100.11
2018-11-26T01:21:52.335Z,99.70
2018-11-26T01:22:52.879Z,99.56
2018-11-26T01:23:53.535Z,98.63
2018-11-26T01:24:54.037Z,98.13
2018-11-26T01:25:54.022Z,97.89
2018-11-26T01:26:54.496Z,97.95
2018-11-26T01:27:54.926Z,97.33
2018-11-26T01:28:55.435Z,97.24
2018-11-26T01:29:55.907Z,97.57
2018-11-26T01:30:56.371Z,97.79
2018-11-26T01:31:57.013Z,98.10
2018-11-26T01:32:57.915Z,98.35
2018-11-26T01:33:58.547Z,98.37
2018-11-26T01:34:59.054Z,98.44
2018-11-26T01:35:59.558Z,98.59
2018-11-26T01:37:00.325Z,98.46
2018-11-26T01:38:00.931Z,97.92
2018-11-26T01:39:01.409Z,96.45
2018-11-26T01:40:01.979Z,96.32
2018-11-26T01:41:02.647Z,95.95
2018-11-26T01:42:03.178Z,96.17
2018-11-26T01:43:03.638Z,96.39
2018-11-26T01:44:04.127Z,96.73
2018-11-26T01:45:04.580Z,96.90
2018-11-26T01:46:05.124Z,97.39
2018-11-26T01:47:05.583Z,97.21
2018-11-26T01:48:06.095Z,96.34
2018-11-26T01:49:06.786Z,96.61
2018-11-26T01:50:07.360Z,96.49
2018-11-26T01:51:07.857Z,96.87
2018-11-26T01:52:07.291Z,97.19
2018-11-26T01:53:09.196Z,97.29
2018-11-26T01:54:09.673Z,96.86
2018-11-26T01:55:10.356Z,96.63
2018-11-26T01:55:18.774Z,96.55
2018-11-26T01:56:20.307Z,96.57
2018-11-26T01:57:20.798Z,96.43
2018-11-26T01:58:21.193Z,96.32
2018-11-26T01:59:21.617Z,96.17
2018-11-26T02:00:22.211Z,96.47
2018-11-26T02:01:23.021Z,96.00
2018-11-26T02:02:23.588Z,96.14
2018-11-26T02:03:24.024Z,96.23
2018-11-26T02:04:24.881Z,96.08
2018-11-26T02:05:25.742Z,96.51
2018-11-26T02:06:26.111Z,95.94
2018-11-26T02:07:26.559Z,96.29
2018-11-26T02:08:27.096Z,96.42
2018-11-26T02:09:27.676Z,96.40
2018-11-26T02:10:28.029Z,96.56
2018-11-26T02:11:28.607Z,96.15
2018-11-26T02:12:29.118Z,96.02
2018-11-26T02:13:29.662Z,95.93
2018-11-26T02:14:30.233Z,96.04
2018-11-26T02:15:30.814Z,95.64
2018-11-26T02:16:31.287Z,95.49
2018-11-26T02:17:31.661Z,95.33
2018-11-26T02:18:32.036Z,95.18
2018-11-26T02:19:32.536Z,95.09
2018-11-26T02:20:32.960Z,95.04
2018-11-26T02:21:33.172Z,95.11
2018-11-26T02:22:33.633Z,95.30
2018-11-26T02:23:34.242Z,95.27
2018-11-26T02:24:34.766Z,95.13
2018-11-26T02:25:35.059Z,95.14
2018-11-26T02:26:35.442Z,95.20
2018-11-26T02:27:35.892Z,95.26
2018-11-26T02:28:36.728Z,95.19
2018-11-26T02:29:37.234Z,94.77
2018-11-26T02:30:37.686Z,94.33
2018-11-26T02:31:38.435Z,94.29
2018-11-26T02:32:38.649Z,94.20
2018-11-26T02:33:39.252Z,94.40
2018-11-26T02:34:39.683Z,94.28
2018-11-26T02:35:40.160Z,94.03
2018-11-26T02:36:40.241Z,93.43
2018-11-26T02:37:40.759Z,93.21
2018-11-26T02:38:41.259Z,93.62
2018-11-26T02:39:41.577Z,93.77
2018-11-26T02:40:42.070Z,93.52
2018-11-26T02:40:50.131Z,93.84
2018-11-26T02:41:51.709Z,93.87
2018-11-26T02:42:52.186Z,93.83
2018-11-26T02:43:53.044Z,93.86
2018-11-26T02:44:53.791Z,93.59
2018-11-26T02:45:54.385Z,93.43
2018-11-26T02:46:54.873Z,92.88
2018-11-26T02:47:55.516Z,92.89
2018-11-26T02:48:56.337Z,93.23
2018-11-26T02:49:56.875Z,93.45
2018-11-26T02:50:57.848Z,93.08
2018-11-26T02:51:58.323Z,92.77
2018-11-26T02:52:58.673Z,92.99
2018-11-26T02:53:59.176Z,92.97
2018-11-26T02:54:59.687Z,92.71
2018-11-26T02:56:00.376Z,92.82
2018-11-26T02:57:00.830Z,92.16
2018-11-26T02:58:01.277Z,92.54
2018-11-26T02:59:01.752Z,92.49
2018-11-26T03:00:02.114Z,92.75
2018-11-26T03:01:02.509Z,93.03
2018-11-26T03:02:02.961Z,92.85
2018-11-26T03:03:03.336Z,91.43
2018-11-26T03:04:03.733Z,91.65
2018-11-26T03:05:04.214Z,91.63
2018-11-26T03:06:04.719Z,91.80
2018-11-26T03:07:05.209Z,91.79
2018-11-26T03:08:05.608Z,91.86
2018-11-26T03:09:06.193Z,92.04
2018-11-26T03:10:06.558Z,92.17
2018-11-26T03:11:06.909Z,92.39
2018-11-26T03:12:07.420Z,92.50
2018-11-26T03:13:07.842Z,92.41
2018-11-26T03:14:08.182Z,92.53
2018-11-26T03:15:08.627Z,92.52
2018-11-26T03:16:08.946Z,92.73
2018-11-26T03:17:09.409Z,92.93
2018-11-26T03:18:09.042Z,92.96
2018-11-26T03:19:10.108Z,92.88
2018-11-26T03:20:10.369Z,93.18
2018-11-26T03:21:10.703Z,92.57
2018-11-26T03:22:11.047Z,92.66
2018-11-26T03:23:11.623Z,92.49
2018-11-26T03:24:12.135Z,92.27
2018-11-26T03:25:12.684Z,92.69
2018-11-26T03:26:13.155Z,92.58
2018-11-26T03:26:21.579Z,92.76
2018-11-26T03:27:23.048Z,92.76
2018-11-26T03:28:23.486Z,92.96
2018-11-26T03:29:24.034Z,92.99
2018-11-26T03:30:24.461Z,92.89
2018-11-26T03:31:24.906Z,92.56
2018-11-26T03:32:25.422Z,92.07
2018-11-26T03:33:25.519Z,92.14
2018-11-26T03:34:25.957Z,92.27
2018-11-26T03:35:26.307Z,92.76
2018-11-26T03:36:26.902Z,92.93
2018-11-26T03:37:27.288Z,92.93
2018-11-26T03:38:27.767Z,92.85
2018-11-26T03:39:28.436Z,92.90
2018-11-26T03:40:28.977Z,92.90
2018-11-26T03:41:29.386Z,92.59
2018-11-26T03:42:29.812Z,92.46
2018-11-26T03:43:30.345Z,92.66
2018-11-26T03:44:30.802Z,92.78
2018-11-26T03:45:31.372Z,92.75
2018-11-26T03:46:31.958Z,92.76
2018-11-26T03:47:32.670Z,92.81
2018-11-26T03:48:33.101Z,92.22
2018-11-26T03:49:33.397Z,91.31
2018-11-26T03:50:33.846Z,91.03
2018-11-26T03:51:34.287Z,91.57
2018-11-26T03:52:35.016Z,91.17
2018-11-26T03:53:35.470Z,91.51
2018-11-26T03:54:35.934Z,91.56
2018-11-26T03:55:36.311Z,91.61
2018-11-26T03:56:37.014Z,91.98
2018-11-26T03:57:37.496Z,91.37
2018-11-26T03:58:38.067Z,91.62
2018-11-26T03:59:38.409Z,91.23
2018-11-26T04:00:38.873Z,91.09
2018-11-26T04:01:39.534Z,91.09
2018-11-26T04:02:40.488Z,91.06
2018-11-26T04:03:40.988Z,91.35
2018-11-26T04:04:41.557Z,91.30
2018-11-26T04:05:41.989Z,91.33
2018-11-26T04:06:42.827Z,91.47
2018-11-26T04:07:43.448Z,91.64
2018-11-26T04:08:43.603Z,91.71
2018-11-26T04:09:44.016Z,92.00
2018-11-26T04:10:44.591Z,92.27
2018-11-26T04:10:52.651Z,91.02
2018-11-26T04:11:54.024Z,90.96
2018-11-26T04:12:54.434Z,90.44
2018-11-26T04:13:54.916Z,89.99
2018-11-26T04:14:55.016Z,90.26
2018-11-26T04:15:55.477Z,90.35
2018-11-26T04:16:56.055Z,90.51
2018-11-26T04:17:56.664Z,91.18
2018-11-26T04:18:57.149Z,91.05
2018-11-26T04:19:57.533Z,90.53
2018-11-26T04:20:57.901Z,90.60
2018-11-26T04:21:58.324Z,90.80
2018-11-26T04:22:58.761Z,90.99
2018-11-26T04:23:59.217Z,91.39
2018-11-26T04:24:59.621Z,91.44
2018-11-26T04:26:00.048Z,91.11
2018-11-26T04:27:00.513Z,90.99
2018-11-26T04:28:00.992Z,90.94
2018-11-26T04:29:01.833Z,91.51
2018-11-26T04:30:02.410Z,91.43
2018-11-26T04:31:02.855Z,91.59
2018-11-26T04:32:03.364Z,91.50
2018-11-26T04:33:03.902Z,91.43
2018-11-26T04:34:04.432Z,91.76
2018-11-26T04:35:04.793Z,91.95
2018-11-26T04:36:05.654Z,92.00
2018-11-26T04:37:06.050Z,92.04
2018-11-26T04:38:06.700Z,92.04
2018-11-26T04:39:06.896Z,91.87
2018-11-26T04:40:07.354Z,91.75
2018-11-26T04:41:07.836Z,91.96
2018-11-26T04:42:08.557Z,92.11
2018-11-26T04:43:08.994Z,91.90
2018-11-26T04:44:09.442Z,91.63
2018-11-26T04:45:09.767Z,91.66
2018-11-26T04:46:10.498Z,91.69
2018-11-26T04:47:10.919Z,91.53
2018-11-26T04:48:11.785Z,92.08
2018-11-26T04:49:12.281Z,91.92
2018-11-26T04:50:12.858Z,92.16
2018-11-26T04:51:13.349Z,92.25
2018-11-26T04:52:13.885Z,91.94
2018-11-26T04:53:14.396Z,91.51
2018-11-26T04:54:14.884Z,91.46
2018-11-26T04:55:15.220Z,91.47
2018-11-26T04:55:23.282Z,91.12
2018-11-26T04:56:24.854Z,91.11
2018-11-26T04:57:25.704Z,91.46
2018-11-26T04:58:26.206Z,91.65
2018-11-26T04:59:26.935Z,91.40
2018-11-26T05:00:27.275Z,91.41
2018-11-26T05:01:27.729Z,91.52
2018-11-26T05:02:28.138Z,91.47
2018-11-26T05:03:28.570Z,90.72
2018-11-26T05:04:29.025Z,91.27
2018-11-26T05:05:29.409Z,91.85
2018-11-26T05:06:29.880Z,91.85
2018-11-26T05:07:30.580Z,91.32
2018-11-26T05:08:31.234Z,90.92
2018-11-26T05:09:31.701Z,91.06
2018-11-26T05:10:32.096Z,90.05
2018-11-26T05:11:32.464Z,90.17
2018-11-26T05:12:33.047Z,90.82
2018-11-26T05:13:33.866Z,90.77
2018-11-26T05:14:34.226Z,90.93
2018-11-26T05:15:34.328Z,91.19
2018-11-26T05:16:34.910Z,91.11
2018-11-26T05:17:35.452Z,90.59
2018-11-26T05:18:35.895Z,90.46
2018-11-26T05:19:36.262Z,89.95
2018-11-26T05:20:36.908Z,89.65
2018-11-26T05:21:37.148Z,89.45
2018-11-26T05:22:37.572Z,89.11
2018-11-26T05:23:38.349Z,88.66
2018-11-26T05:24:38.823Z,88.88
2018-11-26T05:25:39.742Z,89.40
2018-11-26T05:26:40.167Z,89.37
2018-11-26T05:27:40.491Z,89.43
2018-11-26T05:28:41.108Z,89.66
2018-11-26T05:29:41.765Z,89.85
2018-11-26T05:30:42.444Z,90.15
2018-11-26T05:31:42.839Z,90.05
2018-11-26T05:32:43.281Z,90.35
2018-11-26T05:33:43.725Z,90.25
2018-11-26T05:34:44.531Z,89.75
2018-11-26T05:35:45.046Z,89.51
2018-11-26T05:36:45.599Z,89.50
2018-11-26T05:37:46.311Z,89.62
2018-11-26T05:38:46.734Z,89.45
2018-11-26T05:39:47.238Z,89.78
2018-11-26T05:40:47.943Z,89.75
2018-11-26T05:40:56.238Z,89.67
2018-11-26T05:41:57.557Z,89.68
2018-11-26T05:42:57.981Z,89.99
2018-11-26T05:43:58.456Z,89.38
2018-11-26T05:44:58.841Z,89.59
2018-11-26T05:45:59.204Z,89.79
2018-11-26T05:46:59.644Z,90.24
2018-11-26T05:48:00.244Z,90.26
2018-11-26T05:49:00.708Z,90.59
2018-11-26T05:50:00.846Z,91.28
2018-11-26T05:51:01.516Z,91.68
2018-11-26T05:52:02.354Z,91.69
2018-11-26T05:53:02.836Z,92.08
2018-11-26T05:54:03.320Z,90.20
2018-11-26T05:55:03.671Z,90.56
2018-11-26T05:56:04.219Z,90.53
2018-11-26T05:57:04.599Z,90.56
2018-11-26T05:58:05.109Z,91.47
2018-11-26T05:59:05.566Z,91.39
2018-11-26T06:00:06.037Z,91.71
2018-11-26T06:01:06.464Z,91.97
2018-11-26T06:02:06.975Z,92.13
2018-11-26T06:03:07.400Z,93.03
2018-11-26T06:04:07.918Z,93.12
2018-11-26T06:05:08.651Z,92.80
2018-11-26T06:06:09.243Z,91.99
2018-11-26T06:07:10.032Z,92.00
2018-11-26T06:08:10.966Z,92.41
2018-11-26T06:09:11.575Z,92.06
2018-11-26T06:10:12.069Z,91.67
2018-11-26T06:11:12.450Z,91.81
2018-11-26T06:12:13.103Z,92.14
2018-11-26T06:13:13.646Z,92.59
2018-11-26T06:14:14.124Z,92.95
2018-11-26T06:15:14.632Z,92.80
2018-11-26T06:16:15.044Z,92.68
2018-11-26T06:17:16.597Z,92.75
2018-11-26T06:18:15.070Z,92.92
2018-11-26T06:19:16.508Z,93.21
2018-11-26T06:20:16.969Z,93.30
2018-11-26T06:21:17.298Z,93.25
2018-11-26T06:22:17.678Z,93.07
2018-11-26T06:23:18.048Z,93.24
2018-11-26T06:24:18.551Z,93.07
2018-11-26T06:25:19.142Z,92.57
2018-11-26T06:26:19.604Z,92.70
2018-11-26T06:26:27.997Z,93.12
2018-11-26T06:27:29.316Z,93.17
2018-11-26T06:28:29.592Z,93.36
2018-11-26T06:29:30.151Z,93.46
2018-11-26T06:30:30.731Z,93.62
2018-11-26T06:31:31.277Z,93.39
2018-11-26T06:32:32.245Z,92.95
2018-11-26T06:33:32.245Z,93.01
2018-11-26T06:34:32.647Z,92.62
2018-11-26T06:35:33.012Z,92.90
2018-11-26T06:36:33.634Z,93.02
2018-11-26T06:37:34.226Z,93.29
2018-11-26T06:38:34.648Z,92.97
2018-11-26T06:39:35.473Z,92.82
2018-11-26T06:40:35.826Z,92.67
2018-11-26T06:41:36.562Z,92.69
2018-11-26T06:42:37.013Z,93.05
2018-11-26T06:43:37.864Z,93.06
2018-11-26T06:44:38.255Z,92.85
2018-11-26T06:45:38.630Z,93.35
2018-11-26T06:46:39.086Z,93.38
2018-11-26T06:47:40.056Z,93.54
2018-11-26T06:48:40.169Z,93.83
2018-11-26T06:49:40.776Z,94.02
2018-11-26T06:50:41.269Z,93.72
2018-11-26T06:51:41.608Z,93.62
2018-11-26T06:52:42.033Z,93.48
2018-11-26T06:53:42.681Z,93.52
2018-11-26T06:54:43.187Z,93.14
2018-11-26T06:55:43.931Z,93.06
2018-11-26T06:56:44.510Z,93.16
2018-11-26T06:57:44.958Z,93.48
2018-11-26T06:58:45.393Z,93.49
2018-11-26T06:59:45.878Z,93.60
2018-11-26T07:00:46.261Z,93.56
2018-11-26T07:01:46.676Z,93.53
2018-11-26T07:02:47.006Z,93.67
2018-11-26T07:03:47.427Z,94.00
2018-11-26T07:04:47.796Z,94.20
2018-11-26T07:05:48.256Z,94.02
2018-11-26T07:06:48.848Z,93.98
2018-11-26T07:07:49.239Z,94.03
2018-11-26T07:08:49.696Z,93.92
2018-11-26T07:09:50.209Z,93.46
2018-11-26T07:09:58.720Z,93.26
2018-11-26T07:10:59.311Z,93.26
2018-11-26T07:11:59.674Z,93.59
2018-11-26T07:12:59.740Z,93.74
2018-11-26T07:14:00.134Z,93.29
2018-11-26T07:15:00.896Z,93.51
2018-11-26T07:16:01.494Z,93.54
2018-11-26T07:17:02.179Z,93.18
2018-11-26T07:18:02.855Z,92.83
2018-11-26T07:19:03.430Z,92.66
2018-11-26T07:20:03.857Z,92.86
2018-11-26T07:21:04.664Z,93.01
2018-11-26T07:22:05.532Z,92.80
2018-11-26T07:23:04.445Z,93.60
2018-11-26T07:24:06.067Z,93.64
2018-11-26T07:25:07.094Z,93.92
2018-11-26T07:26:07.664Z,94.29
2018-11-26T07:27:08.175Z,94.30
2018-11-26T07:28:08.670Z,94.23
2018-11-26T07:29:09.347Z,94.13
2018-11-26T07:30:10.095Z,93.75
2018-11-26T07:31:10.477Z,93.98
2018-11-26T07:32:11.086Z,93.71
2018-11-26T07:33:11.570Z,93.54
2018-11-26T07:34:12.346Z,93.69
2018-11-26T07:35:12.942Z,93.44
2018-11-26T07:36:13.883Z,92.97
2018-11-26T07:37:14.295Z,93.23
2018-11-26T07:38:14.697Z,92.69
2018-11-26T07:39:15.076Z,92.93
2018-11-26T07:40:15.898Z,93.24
2018-11-26T07:41:16.671Z,93.08
2018-11-26T07:42:17.636Z,93.16
2018-11-26T07:43:18.027Z,93.43
2018-11-26T07:44:18.671Z,93.09
2018-11-26T07:45:19.551Z,92.63
2018-11-26T07:46:20.120Z,92.31
2018-11-26T07:47:20.742Z,92.72
2018-11-26T07:48:21.198Z,93.45
2018-11-26T07:49:21.678Z,93.33
2018-11-26T07:50:22.146Z,93.59
2018-11-26T07:51:22.671Z,92.90
2018-11-26T07:52:23.094Z,93.03
2018-11-26T07:53:23.771Z,92.83
2018-11-26T07:54:24.367Z,92.46
2018-11-26T07:55:24.749Z,92.56
2018-11-26T07:56:25.306Z,93.05
2018-11-26T07:56:33.669Z,93.21
2018-11-26T07:57:34.628Z,93.20
2018-11-26T07:58:35.225Z,93.78
2018-11-26T07:59:35.628Z,94.32
2018-11-26T08:00:35.871Z,94.18
2018-11-26T08:01:36.252Z,93.34
2018-11-26T08:02:36.721Z,93.03
2018-11-26T08:03:37.087Z,93.24
2018-11-26T08:04:36.648Z,93.41
2018-11-26T08:05:37.058Z,93.14
2018-11-26T08:06:38.406Z,93.05
2018-11-26T08:07:39.165Z,93.16
2018-11-26T08:08:39.946Z,92.86
2018-11-26T08:09:40.391Z,92.78
2018-11-26T08:10:41.046Z,92.94
2018-11-26T08:11:41.497Z,92.18
2018-11-26T08:12:41.979Z,91.88
2018-11-26T08:13:42.077Z,91.44
2018-11-26T08:14:42.569Z,91.60
2018-11-26T08:15:43.022Z,91.92
2018-11-26T08:16:43.512Z,92.87
2018-11-26T08:17:43.943Z,92.45
2018-11-26T08:18:43.749Z,92.49
2018-11-26T08:19:45.301Z,92.66
2018-11-26T08:20:45.057Z,91.41
2018-11-26T08:21:46.493Z,91.53
2018-11-26T08:22:46.961Z,91.61
2018-11-26T08:23:46.849Z,91.32
2018-11-26T08:24:48.803Z,91.49
2018-11-26T08:25:49.265Z,91.74
2018-11-26T08:26:48.945Z,91.73
2018-11-26T08:27:50.567Z,91.50
2018-11-26T08:28:51.181Z,90.81
2018-11-26T08:29:51.573Z,90.67
2018-11-26T08:30:51.239Z,91.05
2018-11-26T08:31:52.659Z,91.09
2018-11-26T08:32:53.158Z,90.88
2018-11-26T08:33:52.635Z,90.59
2018-11-26T08:34:54.093Z,90.05
2018-11-26T08:35:54.631Z,89.68
2018-11-26T08:36:54.100Z,89.72
2018-11-26T08:37:55.560Z,89.71
2018-11-26T08:38:56.243Z,89.37
2018-11-26T08:39:56.675Z,89.28
2018-11-26T08:40:56.740Z,89.07
2018-11-26T08:41:57.541Z,89.51
2018-11-26T08:42:58.171Z,89.27
2018-11-26T08:43:58.790Z,89.24
2018-11-26T08:44:59.467Z,89.38
2018-11-26T08:45:59.934Z,89.29
2018-11-26T08:47:00.298Z,89.48
2018-11-26T08:47:08.747Z,89.73
2018-11-26T08:48:09.536Z,89.75
2018-11-26T08:49:09.957Z,89.55
2018-11-26T08:50:10.320Z,89.58
2018-11-26T08:51:10.669Z,89.54
2018-11-26T08:52:11.263Z,89.51
2018-11-26T08:53:11.829Z,89.14
2018-11-26T08:54:12.598Z,89.11
2018-11-26T08:55:13.118Z,89.22
2018-11-26T08:56:13.458Z,89.28
2018-11-26T08:57:13.909Z,89.04
2018-11-26T08:58:14.336Z,88.45
2018-11-26T08:59:14.701Z,88.31
2018-11-26T09:00:15.193Z,88.93
2018-11-26T09:01:15.671Z,89.01
2018-11-26T09:02:16.192Z,89.21
2018-11-26T09:03:16.607Z,89.08
2018-11-26T09:04:17.051Z,89.40
2018-11-26T09:05:23.958Z,89.03
2018-11-26T09:06:17.511Z,88.80
2018-11-26T09:07:19.050Z,89.04
2018-11-26T09:08:19.542Z,89.14
2018-11-26T09:09:20.394Z,89.27
2018-11-26T09:10:20.105Z,88.99
2018-11-26T09:11:21.183Z,88.69
2018-11-26T09:12:21.627Z,88.82
2018-11-26T09:13:21.998Z,89.23
2018-11-26T09:14:22.407Z,88.58
2018-11-26T09:15:22.989Z,88.15
2018-11-26T09:16:23.436Z,88.49
2018-11-26T09:17:24.100Z,88.61
2018-11-26T09:18:24.622Z,88.18
2018-11-26T09:19:25.410Z,87.97
2018-11-26T09:20:25.885Z,88.00
2018-11-26T09:21:26.280Z,88.42
2018-11-26T09:22:26.725Z,88.28
2018-11-26T09:23:27.404Z,87.91
2018-11-26T09:24:28.162Z,87.45
2018-11-26T09:25:28.576Z,87.63
2018-11-26T09:26:27.993Z,87.58
2018-11-26T09:27:29.481Z,87.80
2018-11-26T09:28:30.188Z,87.59
2018-11-26T09:29:30.907Z,87.88
2018-11-26T09:30:31.455Z,88.18
2018-11-26T09:31:32.502Z,87.89
2018-11-26T09:32:31.564Z,87.72
2018-11-26T09:33:33.082Z,87.41
2018-11-26T09:34:33.549Z,87.41
2018-11-26T09:35:33.878Z,87.60
2018-11-26T09:35:41.948Z,87.25
2018-11-26T09:36:43.513Z,87.21
2018-11-26T09:37:45.353Z,86.91
2018-11-26T09:38:45.148Z,86.04
2018-11-26T09:39:45.569Z,86.02
2018-11-26T09:40:45.940Z,86.23
2018-11-26T09:41:46.482Z,86.03
2018-11-26T09:42:47.292Z,86.58
2018-11-26T09:43:48.003Z,86.37
2018-11-26T09:44:48.464Z,86.12
2018-11-26T09:45:49.014Z,86.38
2018-11-26T09:46:49.081Z,86.46
2018-11-26T09:47:49.503Z,85.80
2018-11-26T09:48:49.979Z,85.76
2018-11-26T09:49:50.421Z,86.48
2018-11-26T09:50:50.817Z,85.84
2018-11-26T09:51:51.192Z,86.33
2018-11-26T09:52:51.679Z,86.30
2018-11-26T09:53:52.200Z,85.93
2018-11-26T09:54:52.590Z,86.35
2018-11-26T09:55:52.931Z,85.58
2018-11-26T09:56:53.426Z,85.33
2018-11-26T09:57:53.977Z,85.48
2018-11-26T09:58:54.841Z,85.79
2018-11-26T09:59:55.522Z,85.57
2018-11-26T10:00:55.941Z,85.14
2018-11-26T10:01:56.325Z,85.43
2018-11-26T10:02:56.904Z,85.32
2018-11-26T10:03:57.343Z,85.42
2018-11-26T10:04:57.885Z,85.25
2018-11-26T10:05:58.520Z,84.58
2018-11-26T10:06:59.010Z,85.35
2018-11-26T10:07:59.774Z,85.37
2018-11-26T10:09:00.697Z,85.29
2018-11-26T10:10:00.971Z,85.05
2018-11-26T10:11:01.672Z,85.44
2018-11-26T10:12:02.083Z,85.32
2018-11-26T10:13:02.603Z,85.32
2018-11-26T10:14:03.214Z,84.30
2018-11-26T10:15:03.888Z,85.20
2018-11-26T10:16:04.589Z,85.49
2018-11-26T10:17:04.919Z,85.36
2018-11-26T10:18:05.257Z,85.17
2018-11-26T10:19:05.814Z,84.56
2018-11-26T10:19:29.897Z,83.97
2018-11-26T10:20:30.501Z,83.96
2018-11-26T10:21:31.024Z,84.02
2018-11-26T10:22:31.045Z,84.12
2018-11-26T10:23:31.584Z,84.48
2018-11-26T10:24:32.201Z,84.53
2018-11-26T10:25:33.114Z,84.48
2018-11-26T10:26:33.519Z,84.90
2018-11-26T10:27:34.008Z,84.43
2018-11-26T10:28:34.908Z,85.20
2018-11-26T10:29:35.726Z,84.89
2018-11-26T10:30:36.577Z,84.99
2018-11-26T10:31:37.455Z,84.67
2018-11-26T10:32:37.972Z,84.37
2018-11-26T10:33:38.685Z,83.95
2018-11-26T10:34:39.224Z,84.17
2018-11-26T10:35:39.948Z,83.71
2018-11-26T10:36:41.186Z,83.29
2018-11-26T10:37:40.124Z,82.94
2018-11-26T10:38:41.638Z,82.60
2018-11-26T10:39:41.044Z,82.77
2018-11-26T10:40:42.852Z,82.99
2018-11-26T10:41:43.345Z,83.03
2018-11-26T10:42:43.882Z,82.68
2018-11-26T10:43:44.283Z,83.07
2018-11-26T10:44:45.257Z,83.24
2018-11-26T10:45:45.661Z,82.92
2018-11-26T10:46:46.091Z,82.40
2018-11-26T10:47:47.084Z,82.90
2018-11-26T10:48:47.523Z,83.15
2018-11-26T10:49:48.271Z,82.36
2018-11-26T10:50:49.118Z,82.16
2018-11-26T10:51:49.548Z,82.65
2018-11-26T10:52:50.418Z,82.57
2018-11-26T10:53:50.889Z,82.31
2018-11-26T10:54:51.603Z,82.50
2018-11-26T10:55:52.064Z,82.33
2018-11-26T10:56:52.784Z,81.76
2018-11-26T10:57:53.138Z,82.25
2018-11-26T10:58:53.660Z,82.21
2018-11-26T10:59:54.127Z,82.24
2018-11-26T11:00:54.490Z,81.15
2018-11-26T11:01:54.859Z,80.71
2018-11-26T11:02:55.828Z,81.14
2018-11-26T11:03:54.734Z,81.18
2018-11-26T11:04:56.336Z,81.17
2018-11-26T11:05:56.322Z,80.58
2018-11-26T11:06:57.033Z,80.69
2018-11-26T11:07:05.467Z,79.84
2018-11-26T11:08:06.296Z,79.90
2018-11-26T11:09:06.856Z,80.74
2018-11-26T11:10:07.329Z,80.40
2018-11-26T11:11:08.047Z,79.26
2018-11-26T11:12:08.390Z,79.39
2018-11-26T11:13:08.769Z,79.59
2018-11-26T11:14:09.122Z,79.29
2018-11-26T11:15:09.738Z,79.53
2018-11-26T11:16:09.858Z,78.75
2018-11-26T11:17:10.346Z,79.02
2018-11-26T11:18:10.689Z,78.43
2018-11-26T11:19:11.069Z,78.99
2018-11-26T11:20:11.448Z,78.54
2018-11-26T11:21:12.190Z,78.91
2018-11-26T11:22:12.535Z,79.45
2018-11-26T11:23:13.009Z,79.60
2018-11-26T11:24:13.658Z,79.77
2018-11-26T11:25:14.279Z,79.77
2018-11-26T11:26:14.847Z,79.64
2018-11-26T11:27:15.393Z,79.85
2018-11-26T11:28:16.228Z,79.99
2018-11-26T11:29:16.950Z,80.17
2018-11-26T11:30:17.383Z,79.75
2018-11-26T11:31:17.102Z,78.61
2018-11-26T11:32:19.083Z,78.83
2018-11-26T11:33:41.909Z,78.91
2018-11-26T11:34:42.672Z,78.87
2018-11-26T11:35:42.994Z,78.15
2018-11-26T11:36:43.481Z,77.98
2018-11-26T11:37:44.385Z,78.08
2018-11-26T11:38:44.078Z,78.97
2018-11-26T11:39:44.901Z,78.75
2018-11-26T11:40:46.790Z,78.46
2018-11-26T11:41:46.738Z,78.61
2018-11-26T11:42:45.631Z,78.85
2018-11-26T11:43:47.088Z,78.19
2018-11-26T11:44:47.504Z,77.83
2018-11-26T11:45:48.177Z,77.70
2018-11-26T11:46:48.889Z,78.04
2018-11-26T11:47:49.253Z,78.27
2018-11-26T11:48:50.052Z,78.14
2018-11-26T11:49:50.636Z,78.72
2018-11-26T11:50:51.124Z,77.97
2018-11-26T11:51:51.524Z,77.59
2018-11-26T11:52:51.903Z,78.15
2018-11-26T11:53:52.832Z,78.35
2018-11-26T11:54:53.378Z,78.67
2018-11-26T11:55:53.758Z,78.21
2018-11-26T11:56:54.296Z,78.32
2018-11-26T11:57:54.519Z,77.98
2018-11-26T11:58:54.968Z,77.80
2018-11-26T11:59:55.422Z,77.72
2018-11-26T12:00:56.051Z,78.22
2018-11-26T12:01:56.511Z,78.24
2018-11-26T12:02:57.212Z,78.20
2018-11-26T12:03:57.872Z,77.58
2018-11-26T12:04:58.559Z,78.33
2018-11-26T12:05:58.930Z,77.61
2018-11-26T12:06:59.395Z,77.65
2018-11-26T12:07:59.860Z,78.30
2018-11-26T12:09:00.377Z,78.15
2018-11-26T12:10:01.015Z,77.81
2018-11-26T12:11:01.527Z,77.72
2018-11-26T12:12:01.916Z,77.17
2018-11-26T12:13:02.571Z,78.33
2018-11-26T12:14:02.688Z,77.98
2018-11-26T12:15:03.563Z,78.52
2018-11-26T12:16:04.325Z,78.21
2018-11-26T12:17:04.754Z,78.21
2018-11-26T12:18:05.365Z,78.59
2018-11-26T12:19:06.137Z,78.48
2018-11-26T12:20:06.554Z,78.23
2018-11-26T12:21:07.001Z,78.12
2018-11-26T12:21:15.055Z,78.67
2018-11-26T12:22:16.014Z,78.67
2018-11-26T12:23:16.502Z,78.71
2018-11-26T12:24:16.930Z,78.22
2018-11-26T12:25:17.014Z,78.31
2018-11-26T12:26:17.670Z,78.63
2018-11-26T12:27:18.187Z,77.97
2018-11-26T12:28:19.033Z,78.33
2018-11-26T12:29:19.850Z,78.80
2018-11-26T12:30:20.276Z,78.63
2018-11-26T12:31:20.752Z,78.56
2018-11-26T12:32:21.406Z,78.61
2018-11-26T12:33:21.844Z,78.49
2018-11-26T12:34:22.359Z,78.55
2018-11-26T12:35:22.909Z,78.82
2018-11-26T12:36:23.722Z,78.86
2018-11-26T12:37:24.130Z,78.27
2018-11-26T12:38:24.849Z,78.19
2018-11-26T12:39:25.415Z,78.52
2018-11-26T12:40:25.909Z,78.23
2018-11-26T12:41:26.502Z,79.05
2018-11-26T12:42:26.939Z,78.69
2018-11-26T12:43:27.453Z,78.64
2018-11-26T12:44:27.964Z,78.65